Arlington, Kansas
Current Conditions -  °F | °C
As of 9:52 AM on Saturday 20 Dec 2014 (Local Time) from KHUT Reporting Station
Haze Haze  
Wind Chill: 34°   Ceiling: Unl
Heat Index: 40°   Visibility: 4mi
Dew Point: 37°   Wind: 9mph
Humidity: 89%   Direction: 190°S
Pressure: 30.13"   Gusts: NA
Location:  37.9°N, 98.18°W
Report Text: KHUT 201552Z 19008KT 4SM BR CLR 04/03 A3013 RMK AO2 SLP204 T00440028
Loading
Personal Weather Stations






























Interactive Weather Map New forecast layout! Learn more

10-Day Weather Forecast

Advertisements
Track Severe Weather on mobile